Tenaka — CY7449 — position and weather

sailwx.info

Track history (hours):
 
Tides and Currents Weather Stations Pressure Air Temp Water Temp Dewpoint Dewpoint Depression Visibility Wind Speed Wind Dir Waves Ship Positions

Tenaka

Last reported at 2014-Dec-15 22:31 UTC. Time now 2014-Dec-20 14:25 UTC.
Position N 49°08' W 123°05'.

Length 50 m; draft 2.6 m.

Type: Passenger vessel. MMSI: 316001272.

Date/timePositionNaut miles runAvg speedWind from/ knotsBaromVisibWave heightAir tempDewpointWater temp
2014-Dec-15 22:31N 49°08' W 123°05'2 2.4
2014-Dec-15 21:34N 49°07' W 123°08'9 9.1
2014-Dec-15 20:34N 49°05' W 123°22'9 9.2
2014-Dec-15 19:33N 49°09' W 123°34'1010.0
2014-Dec-15 18:33N 49°14' W 123°48'1010.0
2014-Dec-15 17:34N 49°18' W 124°02'10 9.6
2014-Dec-15 16:34N 49°22' W 124°15'1110.5
2014-Dec-15 15:33N 49°26' W 124°30'9 0.7
2014-Dec-15 03:24N 49°30' W 124°42'0 0.1
2014-Dec-15 02:12N 49°30' W 124°42'0 0.1
2014-Dec-15 01:12N 49°30' W 124°42'0 0.0
2014-Dec-15 00:17N 49°30' W 124°42'0 0.2
2014-Dec-14 23:08N 49°30' W 124°42'1 1.6
2014-Dec-14 22:33N 49°31' W 124°42'1 0.3
2014-Dec-14 20:08N 49°30' W 124°42'0 0.1
2014-Dec-14 19:07N 49°30' W 124°42'0 0.1
2014-Dec-14 18:07N 49°30' W 124°42'0 0.1
2014-Dec-14 17:07N 49°30' W 124°42'1 1.0
2014-Dec-14 16:22N 49°31' W 124°42'0 0.0
2014-Dec-14 15:28N 49°31' W 124°42'0 0.0
2014-Dec-14 14:22N 49°31' W 124°42'0 0.0
2014-Dec-14 13:28N 49°31' W 124°42'0 0.0
2014-Dec-14 12:28N 49°31' W 124°42'0 0.0
2014-Dec-14 11:28N 49°31' W 124°42'0 0.0
2014-Dec-14 10:16N 49°31' W 124°42'0 0.0
2014-Dec-14 05:16N 49°31' W 124°42'0 0.0
2014-Dec-14 04:22N 49°31' W 124°42'1 0.3
2014-Dec-14 02:13N 49°30' W 124°42'0 0.1
2014-Dec-14 01:13N 49°30' W 124°42'0 0.1
2014-Dec-14 00:18N 49°30' W 124°42'0 0.1
2014-Dec-13 23:06N 49°30' W 124°42'1 1.1
2014-Dec-13 22:30N 49°31' W 124°42'1 0.3
2014-Dec-13 20:07N 49°30' W 124°42'0 0.2
2014-Dec-13 19:05N 49°30' W 124°42'0 0.2
2014-Dec-13 18:08N 49°30' W 124°42'0 0.1
2014-Dec-13 17:08N 49°30' W 124°42'1 1.0
2014-Dec-13 16:29N 49°31' W 124°42'0 0.0
2014-Dec-13 14:29N 49°31' W 124°42'0 0.0
2014-Dec-13 11:23N 49°31' W 124°42'0 0.0
2014-Dec-13 08:17N 49°31' W 124°42'0 0.0
2014-Dec-13 06:16N 49°31' W 124°42'0 0.1
2014-Dec-13 05:33N 49°31' W 124°42'1 0.2
2014-Dec-13 02:13N 49°30' W 124°42'0 0.1
2014-Dec-13 01:14N 49°30' W 124°42'0 0.1
2014-Dec-13 00:22N 49°30' W 124°42'0 0.2
2014-Dec-12 23:10N 49°30' W 124°42'1 1.6
2014-Dec-12 22:33N 49°31' W 124°42'1 0.2
2014-Dec-12 20:10N 49°30' W 124°42'0 0.1
2014-Dec-12 19:07N 49°30' W 124°42'0 0.4
2014-Dec-12 18:11N 49°30' W 124°42'0 0.0
2014-Dec-12 17:13N 49°30' W 124°43'1 1.3
2014-Dec-12 16:28N 49°31' W 124°42'0 0.1
2014-Dec-12 15:33N 49°31' W 124°42'0 0.0
2014-Dec-12 13:30N 49°31' W 124°42'0 0.0
2014-Dec-12 12:30N 49°31' W 124°42'0 0.0
2014-Dec-12 11:24N 49°31' W 124°42'0 0.0
2014-Dec-12 10:30N 49°31' W 124°42'0 0.0
2014-Dec-12 09:30N 49°31' W 124°42'0 0.0
2014-Dec-12 08:30N 49°31' W 124°42'0 0.0
2014-Dec-12 07:12N 49°31' W 124°42'0 0.0
2014-Dec-12 03:24N 49°31' W 124°42'1 0.7
2014-Dec-12 02:15N 49°30' W 124°42'0 0.1
2014-Dec-12 01:13N 49°30' W 124°42'0 0.1
2014-Dec-12 00:22N 49°30' W 124°42'0 0.1
2014-Dec-11 23:07N 49°30' W 124°42'1 1.4
2014-Dec-11 22:31N 49°31' W 124°42'1 0.9
2014-Dec-11 21:33N 49°30' W 124°43'0 0.1
2014-Dec-11 20:07N 49°30' W 124°42'0 0.0
2014-Dec-11 19:07N 49°30' W 124°42'0 0.1
2014-Dec-11 18:14N 49°30' W 124°42'0 0.1
2014-Dec-11 17:06N 49°30' W 124°42'0 0.3
2014-Dec-11 16:33N 49°30' W 124°42'0 0.3
2014-Dec-11 15:33N 49°31' W 124°42'0 0.2
2014-Dec-11 14:29N 49°31' W 124°42'0 0.0
2014-Dec-11 13:29N 49°31' W 124°42'0 0.0
2014-Dec-11 12:29N 49°31' W 124°42'0 0.0
2014-Dec-11 11:23N 49°31' W 124°42'0 0.0
2014-Dec-11 10:23N 49°31' W 124°42'0 0.0
2014-Dec-11 09:29N 49°31' W 124°42'0 0.0
2014-Dec-11 06:29N 49°31' W 124°42'1 0.2
2014-Dec-11 02:13N 49°30' W 124°42'0 0.4
2014-Dec-11 01:17N 49°30' W 124°43'0 0.6
2014-Dec-11 00:24N 49°30' W 124°42'0 0.4
2014-Dec-10 23:09N 49°30' W 124°42'1 1.6
2014-Dec-10 22:34N 49°31' W 124°42'0 0.5
2014-Dec-10 21:34N 49°30' W 124°42'0 0.2
2014-Dec-10 20:08N 49°30' W 124°42'0 0.0
2014-Dec-10 19:08N 49°30' W 124°42'0 0.1
2014-Dec-10 18:21N 49°30' W 124°42'0 0.1
2014-Dec-10 17:13N 49°30' W 124°42'1 0.7
2014-Dec-10 16:13N 49°31' W 124°42'0 0.1
2014-Dec-10 15:31N 49°31' W 124°42'0 0.0
2014-Dec-10 14:31N 49°31' W 124°42'0 0.0
2014-Dec-10 13:25N 49°31' W 124°42'0 0.0
2014-Dec-10 12:31N 49°31' W 124°42'0 0.0
2014-Dec-10 11:31N 49°31' W 124°42'0 0.0
2014-Dec-10 10:31N 49°31' W 124°42'0 0.0
2014-Dec-10 09:31N 49°31' W 124°42'0 0.0
2014-Dec-10 08:31N 49°31' W 124°42'0 0.0
2014-Dec-10 07:31N 49°31' W 124°42'0 0.0
2014-Dec-10 06:31N 49°31' W 124°42'0 0.0
2014-Dec-10 03:31N 49°31' W 124°42'0 0.0
2014-Dec-09 15:08N 49°31' W 124°42'0 0.1
2014-Dec-09 14:32N 49°31' W 124°42'0 0.0
2014-Dec-09 13:14N 49°31' W 124°42'0 0.0
2014-Dec-09 12:20N 49°31' W 124°42'0 0.0
2014-Dec-09 11:32N 49°31' W 124°42'0 0.0
2014-Dec-09 10:26N 49°31' W 124°42'0 0.0
2014-Dec-09 09:32N 49°31' W 124°42'0 0.0
2014-Dec-09 08:32N 49°31' W 124°42'0 0.0
2014-Dec-09 07:32N 49°31' W 124°42'0 0.0
2014-Dec-09 06:32N 49°31' W 124°42'0 0.0
2014-Dec-09 05:26N 49°31' W 124°42'0 0.0
2014-Dec-09 04:32N 49°31' W 124°42'1 0.4
2014-Dec-09 02:17N 49°30' W 124°42'0 0.2
2014-Dec-09 01:14N 49°30' W 124°42'0 0.0
2014-Dec-09 00:19N 49°30' W 124°42'0 0.1
2014-Dec-08 23:10N 49°30' W 124°42'1 1.4
2014-Dec-08 22:33N 49°31' W 124°42'1 0.6
2014-Dec-08 21:33N 49°30' W 124°42'0 0.1
2014-Dec-08 20:07N 49°30' W 124°42'0 0.1
2014-Dec-08 19:07N 49°30' W 124°42'0 0.2
2014-Dec-08 18:09N 49°30' W 124°42'0 0.2
2014-Dec-08 17:07N 49°30' W 124°42'1 1.3
2014-Dec-08 16:33N 49°31' W 124°42'0 0.0
2014-Dec-08 15:33N 49°31' W 124°42'0 0.1
2014-Dec-08 14:32N 49°31' W 124°42'0 0.0
2014-Dec-08 13:32N 49°31' W 124°42'0 0.0
2014-Dec-08 12:32N 49°31' W 124°42'0 0.0
2014-Dec-08 11:32N 49°31' W 124°42'0 0.0
2014-Dec-08 10:32N 49°31' W 124°42'0 0.0
2014-Dec-08 09:32N 49°31' W 124°42'0 0.0
2014-Dec-08 08:32N 49°31' W 124°42'0 0.0
2014-Dec-08 07:32N 49°31' W 124°42'0 0.0
2014-Dec-08 06:32N 49°31' W 124°42'0 0.0
2014-Dec-08 05:32N 49°31' W 124°42'0 0.0
2014-Dec-08 04:32N 49°31' W 124°42'0 0.0
2014-Dec-08 03:20N 49°31' W 124°42'1 0.7
2014-Dec-08 02:14N 49°30' W 124°42'0 0.1
2014-Dec-08 01:18N 49°30' W 124°42'0 0.0
2014-Dec-08 00:18N 49°30' W 124°42'0 0.2
2014-Dec-07 23:07N 49°30' W 124°42'0 0.1
2014-Dec-07 22:09N 49°30' W 124°42'0 0.1
2014-Dec-07 20:09N 49°30' W 124°42'0 0.3
2014-Dec-07 19:07N 49°30' W 124°42'0 0.1
2014-Dec-07 18:08N 49°30' W 124°42'0 0.1
2014-Dec-07 17:06N 49°30' W 124°42'1 1.2
2014-Dec-07 16:29N 49°31' W 124°42'0 0.0
2014-Dec-07 15:29N 49°31' W 124°42'0 0.0
2014-Dec-07 14:29N 49°31' W 124°42'0 0.0
2014-Dec-07 13:29N 49°31' W 124°42'0 0.0
2014-Dec-07 12:29N 49°31' W 124°42'0 0.0
2014-Dec-07 11:29N 49°31' W 124°42'0 0.0
2014-Dec-07 10:29N 49°31' W 124°42'0 0.0
2014-Dec-07 09:17N 49°31' W 124°42'0 0.0
2014-Dec-07 08:17N 49°31' W 124°42'0 0.0
2014-Dec-07 07:29N 49°31' W 124°42'0 0.0
2014-Dec-07 06:29N 49°31' W 124°42'0 0.0
2014-Dec-07 05:29N 49°31' W 124°42'0 0.0
2014-Dec-07 04:29N 49°31' W 124°42'0 0.0
2014-Dec-07 03:29N 49°31' W 124°42'1 0.6
2014-Dec-07 02:14N 49°30' W 124°42'0 0.1
2014-Dec-07 01:13N 49°30' W 124°42'0 0.2
2014-Dec-07 00:18N 49°30' W 124°42'0 0.1
2014-Dec-06 23:08N 49°30' W 124°42'0 0.4
2014-Dec-06 22:32N 49°30' W 124°42'0 0.1
2014-Dec-06 20:09N 49°30' W 124°42'0 0.1
2014-Dec-06 19:07N 49°30' W 124°42'0 0.0
2014-Dec-06 18:07N 49°30' W 124°42'0 0.1
2014-Dec-06 17:08N 49°30' W 124°42'1 1.2
2014-Dec-06 16:30N 49°31' W 124°42'0 0.0
2014-Dec-06 15:33N 49°31' W 124°42'0 0.0
2014-Dec-06 13:10N 49°31' W 124°42'0 0.0
2014-Dec-06 12:16N 49°31' W 124°42'0 0.0
2014-Dec-06 11:28N 49°31' W 124°42'0 0.0
2014-Dec-06 10:28N 49°31' W 124°42'0 0.0
2014-Dec-06 09:28N 49°31' W 124°42'0 0.0
2014-Dec-06 08:28N 49°31' W 124°42'0 0.0
2014-Dec-06 07:28N 49°31' W 124°42'0 0.0
2014-Dec-06 06:15N 49°31' W 124°42'0 0.2
2014-Dec-06 05:33N 49°31' W 124°42'1 0.2
2014-Dec-06 02:18N 49°30' W 124°42'0 0.0
2014-Dec-06 01:17N 49°30' W 124°42'0 0.2
2014-Dec-06 00:21N 49°30' W 124°42'0 0.2
2014-Dec-05 23:09N 49°30' W 124°42'1 1.3
2014-Dec-05 22:33N 49°31' W 124°42'  
Track history (hours):
 
Tides and Currents Weather Stations Pressure Air Temp Water Temp Dewpoint Dewpoint Depression Visibility Wind Speed Wind Dir Waves Ship Positions

Tenaka

Last reported at 2014-Dec-15 22:31 UTC. Time now 2014-Dec-20 14:25 UTC.
Position N 49°08' W 123°05'.

Length 50 m; draft 2.6 m.

Type: Passenger vessel. MMSI: 316001272.

Date/timePositionNaut miles runAvg speedWind from/ knotsBaromVisibWave heightAir tempDewpointWater temp
2014-Dec-15 22:31N 49°08' W 123°05'2 2.4
2014-Dec-15 21:34N 49°07' W 123°08'9 9.1
2014-Dec-15 20:34N 49°05' W 123°22'9 9.2
2014-Dec-15 19:33N 49°09' W 123°34'1010.0
2014-Dec-15 18:33N 49°14' W 123°48'1010.0
2014-Dec-15 17:34N 49°18' W 124°02'10 9.6
2014-Dec-15 16:34N 49°22' W 124°15'1110.5
2014-Dec-15 15:33N 49°26' W 124°30'9 0.7
2014-Dec-15 03:24N 49°30' W 124°42'0 0.1
2014-Dec-15 02:12N 49°30' W 124°42'0 0.1
2014-Dec-15 01:12N 49°30' W 124°42'0 0.0
2014-Dec-15 00:17N 49°30' W 124°42'0 0.2
2014-Dec-14 23:08N 49°30' W 124°42'1 1.6
2014-Dec-14 22:33N 49°31' W 124°42'1 0.3
2014-Dec-14 20:08N 49°30' W 124°42'0 0.1
2014-Dec-14 19:07N 49°30' W 124°42'0 0.1
2014-Dec-14 18:07N 49°30' W 124°42'0 0.1
2014-Dec-14 17:07N 49°30' W 124°42'1 1.0
2014-Dec-14 16:22N 49°31' W 124°42'0 0.0
2014-Dec-14 15:28N 49°31' W 124°42'0 0.0
2014-Dec-14 14:22N 49°31' W 124°42'0 0.0
2014-Dec-14 13:28N 49°31' W 124°42'0 0.0
2014-Dec-14 12:28N 49°31' W 124°42'0 0.0
2014-Dec-14 11:28N 49°31' W 124°42'0 0.0
2014-Dec-14 10:16N 49°31' W 124°42'0 0.0
2014-Dec-14 05:16N 49°31' W 124°42'0 0.0
2014-Dec-14 04:22N 49°31' W 124°42'1 0.3
2014-Dec-14 02:13N 49°30' W 124°42'0 0.1
2014-Dec-14 01:13N 49°30' W 124°42'0 0.1
2014-Dec-14 00:18N 49°30' W 124°42'0 0.1
2014-Dec-13 23:06N 49°30' W 124°42'1 1.1
2014-Dec-13 22:30N 49°31' W 124°42'1 0.3
2014-Dec-13 20:07N 49°30' W 124°42'0 0.2
2014-Dec-13 19:05N 49°30' W 124°42'0 0.2
2014-Dec-13 18:08N 49°30' W 124°42'0 0.1
2014-Dec-13 17:08N 49°30' W 124°42'1 1.0
2014-Dec-13 16:29N 49°31' W 124°42'0 0.0
2014-Dec-13 14:29N 49°31' W 124°42'0 0.0
2014-Dec-13 11:23N 49°31' W 124°42'0 0.0
2014-Dec-13 08:17N 49°31' W 124°42'0 0.0
2014-Dec-13 06:16N 49°31' W 124°42'0 0.1
2014-Dec-13 05:33N 49°31' W 124°42'1 0.2
2014-Dec-13 02:13N 49°30' W 124°42'0 0.1
2014-Dec-13 01:14N 49°30' W 124°42'0 0.1
2014-Dec-13 00:22N 49°30' W 124°42'0 0.2
2014-Dec-12 23:10N 49°30' W 124°42'1 1.6
2014-Dec-12 22:33N 49°31' W 124°42'1 0.2
2014-Dec-12 20:10N 49°30' W 124°42'0 0.1
2014-Dec-12 19:07N 49°30' W 124°42'0 0.4
2014-Dec-12 18:11N 49°30' W 124°42'0 0.0
2014-Dec-12 17:13N 49°30' W 124°43'1 1.3
2014-Dec-12 16:28N 49°31' W 124°42'0 0.1
2014-Dec-12 15:33N 49°31' W 124°42'0 0.0
2014-Dec-12 13:30N 49°31' W 124°42'0 0.0
2014-Dec-12 12:30N 49°31' W 124°42'0 0.0
2014-Dec-12 11:24N 49°31' W 124°42'0 0.0
2014-Dec-12 10:30N 49°31' W 124°42'0 0.0
2014-Dec-12 09:30N 49°31' W 124°42'0 0.0
2014-Dec-12 08:30N 49°31' W 124°42'0 0.0
2014-Dec-12 07:12N 49°31' W 124°42'0 0.0
2014-Dec-12 03:24N 49°31' W 124°42'1 0.7
2014-Dec-12 02:15N 49°30' W 124°42'0 0.1
2014-Dec-12 01:13N 49°30' W 124°42'0 0.1
2014-Dec-12 00:22N 49°30' W 124°42'0 0.1
2014-Dec-11 23:07N 49°30' W 124°42'1 1.4
2014-Dec-11 22:31N 49°31' W 124°42'1 0.9
2014-Dec-11 21:33N 49°30' W 124°43'0 0.1
2014-Dec-11 20:07N 49°30' W 124°42'0 0.0
2014-Dec-11 19:07N 49°30' W 124°42'0 0.1
2014-Dec-11 18:14N 49°30' W 124°42'0 0.1
2014-Dec-11 17:06N 49°30' W 124°42'0 0.3
2014-Dec-11 16:33N 49°30' W 124°42'0 0.3
2014-Dec-11 15:33N 49°31' W 124°42'0 0.2
2014-Dec-11 14:29N 49°31' W 124°42'0 0.0
2014-Dec-11 13:29N 49°31' W 124°42'0 0.0
2014-Dec-11 12:29N 49°31' W 124°42'0 0.0
2014-Dec-11 11:23N 49°31' W 124°42'0 0.0
2014-Dec-11 10:23N 49°31' W 124°42'0 0.0
2014-Dec-11 09:29N 49°31' W 124°42'0 0.0
2014-Dec-11 06:29N 49°31' W 124°42'1 0.2
2014-Dec-11 02:13N 49°30' W 124°42'0 0.4
2014-Dec-11 01:17N 49°30' W 124°43'0 0.6
2014-Dec-11 00:24N 49°30' W 124°42'0 0.4
2014-Dec-10 23:09N 49°30' W 124°42'1 1.6
2014-Dec-10 22:34N 49°31' W 124°42'0 0.5
2014-Dec-10 21:34N 49°30' W 124°42'0 0.2
2014-Dec-10 20:08N 49°30' W 124°42'0 0.0
2014-Dec-10 19:08N 49°30' W 124°42'0 0.1
2014-Dec-10 18:21N 49°30' W 124°42'0 0.1
2014-Dec-10 17:13N 49°30' W 124°42'1 0.7
2014-Dec-10 16:13N 49°31' W 124°42'0 0.1
2014-Dec-10 15:31N 49°31' W 124°42'0 0.0
2014-Dec-10 14:31N 49°31' W 124°42'0 0.0
2014-Dec-10 13:25N 49°31' W 124°42'0 0.0
2014-Dec-10 12:31N 49°31' W 124°42'0 0.0
2014-Dec-10 11:31N 49°31' W 124°42'0 0.0
2014-Dec-10 10:31N 49°31' W 124°42'0 0.0
2014-Dec-10 09:31N 49°31' W 124°42'0 0.0
2014-Dec-10 08:31N 49°31' W 124°42'0 0.0
2014-Dec-10 07:31N 49°31' W 124°42'0 0.0
2014-Dec-10 06:31N 49°31' W 124°42'0 0.0
2014-Dec-10 03:31N 49°31' W 124°42'0 0.0
2014-Dec-09 15:08N 49°31' W 124°42'0 0.1
2014-Dec-09 14:32N 49°31' W 124°42'0 0.0
2014-Dec-09 13:14N 49°31' W 124°42'0 0.0
2014-Dec-09 12:20N 49°31' W 124°42'0 0.0
2014-Dec-09 11:32N 49°31' W 124°42'0 0.0
2014-Dec-09 10:26N 49°31' W 124°42'0 0.0
2014-Dec-09 09:32N 49°31' W 124°42'0 0.0
2014-Dec-09 08:32N 49°31' W 124°42'0 0.0
2014-Dec-09 07:32N 49°31' W 124°42'0 0.0
2014-Dec-09 06:32N 49°31' W 124°42'0 0.0
2014-Dec-09 05:26N 49°31' W 124°42'0 0.0
2014-Dec-09 04:32N 49°31' W 124°42'1 0.4
2014-Dec-09 02:17N 49°30' W 124°42'0 0.2
2014-Dec-09 01:14N 49°30' W 124°42'0 0.0
2014-Dec-09 00:19N 49°30' W 124°42'0 0.1
2014-Dec-08 23:10N 49°30' W 124°42'1 1.4
2014-Dec-08 22:33N 49°31' W 124°42'1 0.6
2014-Dec-08 21:33N 49°30' W 124°42'0 0.1
2014-Dec-08 20:07N 49°30' W 124°42'0 0.1
2014-Dec-08 19:07N 49°30' W 124°42'0 0.2
2014-Dec-08 18:09N 49°30' W 124°42'0 0.2
2014-Dec-08 17:07N 49°30' W 124°42'1 1.3
2014-Dec-08 16:33N 49°31' W 124°42'0 0.0
2014-Dec-08 15:33N 49°31' W 124°42'0 0.1
2014-Dec-08 14:32N 49°31' W 124°42'0 0.0
2014-Dec-08 13:32N 49°31' W 124°42'0 0.0
2014-Dec-08 12:32N 49°31' W 124°42'0 0.0
2014-Dec-08 11:32N 49°31' W 124°42'0 0.0
2014-Dec-08 10:32N 49°31' W 124°42'0 0.0
2014-Dec-08 09:32N 49°31' W 124°42'0 0.0
2014-Dec-08 08:32N 49°31' W 124°42'0 0.0
2014-Dec-08 07:32N 49°31' W 124°42'0 0.0
2014-Dec-08 06:32N 49°31' W 124°42'0 0.0
2014-Dec-08 05:32N 49°31' W 124°42'0 0.0
2014-Dec-08 04:32N 49°31' W 124°42'0 0.0
2014-Dec-08 03:20N 49°31' W 124°42'1 0.7
2014-Dec-08 02:14N 49°30' W 124°42'0 0.1
2014-Dec-08 01:18N 49°30' W 124°42'0 0.0
2014-Dec-08 00:18N 49°30' W 124°42'0 0.2
2014-Dec-07 23:07N 49°30' W 124°42'0 0.1
2014-Dec-07 22:09N 49°30' W 124°42'0 0.1
2014-Dec-07 20:09N 49°30' W 124°42'0 0.3
2014-Dec-07 19:07N 49°30' W 124°42'0 0.1
2014-Dec-07 18:08N 49°30' W 124°42'0 0.1
2014-Dec-07 17:06N 49°30' W 124°42'1 1.2
2014-Dec-07 16:29N 49°31' W 124°42'0 0.0
2014-Dec-07 15:29N 49°31' W 124°42'0 0.0
2014-Dec-07 14:29N 49°31' W 124°42'0 0.0
2014-Dec-07 13:29N 49°31' W 124°42'0 0.0
2014-Dec-07 12:29N 49°31' W 124°42'0 0.0
2014-Dec-07 11:29N 49°31' W 124°42'0 0.0
2014-Dec-07 10:29N 49°31' W 124°42'0 0.0
2014-Dec-07 09:17N 49°31' W 124°42'0 0.0
2014-Dec-07 08:17N 49°31' W 124°42'0 0.0
2014-Dec-07 07:29N 49°31' W 124°42'0 0.0
2014-Dec-07 06:29N 49°31' W 124°42'0 0.0
2014-Dec-07 05:29N 49°31' W 124°42'0 0.0
2014-Dec-07 04:29N 49°31' W 124°42'0 0.0
2014-Dec-07 03:29N 49°31' W 124°42'1 0.6
2014-Dec-07 02:14N 49°30' W 124°42'0 0.1
2014-Dec-07 01:13N 49°30' W 124°42'0 0.2
2014-Dec-07 00:18N 49°30' W 124°42'0 0.1
2014-Dec-06 23:08N 49°30' W 124°42'0 0.4
2014-Dec-06 22:32N 49°30' W 124°42'0 0.1
2014-Dec-06 20:09N 49°30' W 124°42'0 0.1
2014-Dec-06 19:07N 49°30' W 124°42'0 0.0
2014-Dec-06 18:07N 49°30' W 124°42'0 0.1
2014-Dec-06 17:08N 49°30' W 124°42'1 1.2
2014-Dec-06 16:30N 49°31' W 124°42'0 0.0
2014-Dec-06 15:33N 49°31' W 124°42'0 0.0
2014-Dec-06 13:10N 49°31' W 124°42'0 0.0
2014-Dec-06 12:16N 49°31' W 124°42'0 0.0
2014-Dec-06 11:28N 49°31' W 124°42'0 0.0
2014-Dec-06 10:28N 49°31' W 124°42'0 0.0
2014-Dec-06 09:28N 49°31' W 124°42'0 0.0
2014-Dec-06 08:28N 49°31' W 124°42'0 0.0
2014-Dec-06 07:28N 49°31' W 124°42'0 0.0
2014-Dec-06 06:15N 49°31' W 124°42'0 0.2
2014-Dec-06 05:33N 49°31' W 124°42'1 0.2
2014-Dec-06 02:18N 49°30' W 124°42'0 0.0
2014-Dec-06 01:17N 49°30' W 124°42'0 0.2
2014-Dec-06 00:21N 49°30' W 124°42'0 0.2
2014-Dec-05 23:09N 49°30' W 124°42'1 1.3
2014-Dec-05 22:33N 49°31' W 124°42'  

Dump ship's entire track history